createdAt,value
2018-12-07T00:00:44.313Z,1006.95
2018-12-07T00:01:44.280Z,1006.91
2018-12-07T00:02:44.270Z,1006.85
2018-12-07T00:03:44.329Z,1006.89
2018-12-07T00:04:44.269Z,1006.95
2018-12-07T00:05:44.371Z,1007.01
2018-12-07T00:06:44.338Z,1006.89
2018-12-07T00:07:44.219Z,1007.06
2018-12-07T00:08:44.180Z,1007.04
2018-12-07T00:09:44.179Z,1006.94
2018-12-07T00:10:44.169Z,1006.94
2018-12-07T00:11:44.322Z,1006.87
2018-12-07T00:12:44.318Z,1006.81
2018-12-07T00:13:44.136Z,1006.86
2018-12-07T00:14:44.183Z,1006.75
2018-12-07T00:15:44.123Z,1006.82
2018-12-07T00:16:44.093Z,1006.80
2018-12-07T00:17:44.092Z,1006.89
2018-12-07T00:18:44.096Z,1006.81
2018-12-07T00:19:47.935Z,1006.80
2018-12-07T00:20:44.052Z,1006.78
2018-12-07T00:21:44.050Z,1006.74
2018-12-07T00:22:44.026Z,1006.90
2018-12-07T00:23:44.052Z,1006.86
2018-12-07T00:24:44.088Z,1006.88
2018-12-07T00:25:44.002Z,1006.76
2018-12-07T00:26:43.995Z,1006.74
2018-12-07T00:27:44.000Z,1006.70
2018-12-07T00:28:43.999Z,1006.77
2018-12-07T00:29:43.974Z,1006.71
2018-12-07T00:30:43.942Z,1006.65
2018-12-07T00:31:43.949Z,1006.56
2018-12-07T00:32:43.928Z,1006.73
2018-12-07T00:33:43.938Z,1006.46
2018-12-07T00:34:43.905Z,1006.68
2018-12-07T00:35:43.881Z,1006.57
2018-12-07T00:36:43.875Z,1006.52
2018-12-07T00:37:43.871Z,1006.45
2018-12-07T00:38:43.859Z,1006.44
2018-12-07T00:39:43.840Z,1006.44
2018-12-07T00:40:43.834Z,1006.39
2018-12-07T00:41:43.813Z,1006.42
2018-12-07T00:42:43.805Z,1006.42
2018-12-07T00:43:43.825Z,1006.36
2018-12-07T00:44:43.797Z,1006.50
2018-12-07T00:45:43.777Z,1006.72
2018-12-07T00:46:43.775Z,1006.53
2018-12-07T00:47:43.770Z,1006.62
2018-12-07T00:48:43.763Z,1006.63
2018-12-07T00:49:43.751Z,1006.71
2018-12-07T00:50:43.720Z,1006.62
2018-12-07T00:51:43.714Z,1006.53
2018-12-07T00:52:43.698Z,1006.72
2018-12-07T00:53:43.703Z,1006.51
2018-12-07T00:54:43.674Z,1006.54
2018-12-07T00:55:43.662Z,1006.54
2018-12-07T00:56:43.661Z,1006.57
2018-12-07T00:57:43.635Z,1006.61
2018-12-07T00:58:43.664Z,1006.57
2018-12-07T00:59:43.619Z,1006.43
2018-12-07T01:00:43.609Z,1006.38
2018-12-07T01:01:43.600Z,1006.33
2018-12-07T01:02:43.593Z,1006.34
2018-12-07T01:03:43.578Z,1006.22
2018-12-07T01:04:43.585Z,1006.34
2018-12-07T01:05:43.593Z,1006.28
2018-12-07T01:06:43.634Z,1006.20
2018-12-07T01:07:43.533Z,1006.15
2018-12-07T01:08:43.527Z,1006.20
2018-12-07T01:09:43.546Z,1006.20
2018-12-07T01:10:43.500Z,1006.15
2018-12-07T01:11:43.486Z,1006.15
2018-12-07T01:12:43.488Z,1006.23
2018-12-07T01:13:43.506Z,1006.12
2018-12-07T01:14:43.478Z,1006.17
2018-12-07T01:15:43.449Z,1006.14
2018-12-07T01:16:43.426Z,1006.09
2018-12-07T01:17:43.435Z,1006.23
2018-12-07T01:18:43.403Z,1006.19
2018-12-07T01:19:43.432Z,1006.23
2018-12-07T01:20:43.401Z,1006.17
2018-12-07T01:21:43.386Z,1006.27
2018-12-07T01:22:43.386Z,1006.23
2018-12-07T01:23:43.360Z,1006.25
2018-12-07T01:24:43.390Z,1006.27
2018-12-07T01:25:43.339Z,1006.08
2018-12-07T01:26:43.360Z,1006.11
2018-12-07T01:27:43.311Z,1006.06
2018-12-07T01:28:43.299Z,1006.05
2018-12-07T01:29:43.304Z,1006.06
2018-12-07T01:30:43.281Z,1006.08
2018-12-07T01:31:43.274Z,1006.12
2018-12-07T01:32:43.252Z,1006.11
2018-12-07T01:33:43.250Z,1006.16
2018-12-07T01:34:43.241Z,1006.14
2018-12-07T01:35:43.327Z,1006.05
2018-12-07T01:36:43.220Z,1006.10
2018-12-07T01:37:43.194Z,1006.07
2018-12-07T01:38:43.188Z,1006.16
2018-12-07T01:39:43.201Z,1006.04
2018-12-07T01:40:43.169Z,1006.14
2018-12-07T01:41:43.158Z,1006.15
2018-12-07T01:42:43.139Z,1006.06
2018-12-07T01:43:43.131Z,1006.11
2018-12-07T01:44:43.131Z,1006.10
2018-12-07T01:45:43.109Z,1006.07
2018-12-07T01:46:43.090Z,1006.02
2018-12-07T01:47:43.087Z,1006.04
2018-12-07T01:48:43.075Z,1006.00
2018-12-07T01:49:43.116Z,1006.00
2018-12-07T01:50:43.046Z,1005.98
2018-12-07T01:51:43.055Z,1005.94
2018-12-07T01:52:43.027Z,1006.07
2018-12-07T01:53:43.008Z,1005.95
2018-12-07T01:54:43.008Z,1005.93
2018-12-07T01:55:43.025Z,1006.03
2018-12-07T01:56:42.998Z,1005.85
2018-12-07T01:57:43.001Z,1005.92
2018-12-07T01:58:43.018Z,1005.89
2018-12-07T01:59:42.948Z,1005.96
2018-12-07T02:00:42.958Z,1005.95
2018-12-07T02:01:42.933Z,1005.99
2018-12-07T02:02:42.926Z,1005.83
2018-12-07T02:03:42.920Z,1005.86
2018-12-07T02:04:42.903Z,1005.72
2018-12-07T02:05:42.907Z,1005.72
2018-12-07T02:06:42.890Z,1005.66
2018-12-07T02:07:42.861Z,1005.72
2018-12-07T02:08:42.870Z,1005.64
2018-12-07T02:09:42.842Z,1005.73
2018-12-07T02:10:42.938Z,1005.72
2018-12-07T02:11:42.828Z,1005.62
2018-12-07T02:12:42.806Z,1005.55
2018-12-07T02:13:42.802Z,1005.57
2018-12-07T02:14:42.787Z,1005.55
2018-12-07T02:15:42.786Z,1005.66
2018-12-07T02:16:42.756Z,1005.52
2018-12-07T02:17:42.757Z,1005.54
2018-12-07T02:18:42.745Z,1005.54
2018-12-07T02:19:42.735Z,1005.48
2018-12-07T02:20:42.742Z,1005.50
2018-12-07T02:21:42.716Z,1005.52
2018-12-07T02:22:42.689Z,1005.48
2018-12-07T02:23:42.688Z,1005.48
2018-12-07T02:24:42.684Z,1005.44
2018-12-07T02:25:42.679Z,1005.53
2018-12-07T02:26:42.650Z,1005.48
2018-12-07T02:27:42.649Z,1005.52
2018-12-07T02:28:42.629Z,1005.50
2018-12-07T02:29:42.627Z,1005.44
2018-12-07T02:30:42.632Z,1005.39
2018-12-07T02:31:42.597Z,1005.34
2018-12-07T02:32:42.586Z,1005.35
2018-12-07T02:33:42.579Z,1005.34
2018-12-07T02:34:42.559Z,1005.49
2018-12-07T02:35:42.575Z,1005.39
2018-12-07T02:36:42.548Z,1005.44
2018-12-07T02:37:42.535Z,1005.28
2018-12-07T02:38:42.526Z,1005.28
2018-12-07T02:39:42.533Z,1005.28
2018-12-07T02:40:42.525Z,1005.26
2018-12-07T02:41:42.475Z,1005.32
2018-12-07T02:42:42.482Z,1005.32
2018-12-07T02:43:42.477Z,1005.30
2018-12-07T02:44:42.451Z,1005.42
2018-12-07T02:45:42.452Z,1005.34
2018-12-07T02:46:42.518Z,1005.29
2018-12-07T02:47:42.418Z,1005.25
2018-12-07T02:48:42.420Z,1005.28
2018-12-07T02:49:42.395Z,1005.16
2018-12-07T02:50:42.389Z,1005.10
2018-12-07T02:51:42.389Z,1005.06
2018-12-07T02:52:42.365Z,1005.06
2018-12-07T02:53:42.351Z,1005.11
2018-12-07T02:54:42.348Z,1005.01
2018-12-07T02:55:42.343Z,1005.04
2018-12-07T02:56:42.313Z,1005.13
2018-12-07T02:57:42.307Z,1005.05
2018-12-07T02:58:42.301Z,1004.98
2018-12-07T02:59:42.279Z,1004.91
2018-12-07T03:00:42.297Z,1005.05
2018-12-07T03:01:42.268Z,1005.01
2018-12-07T03:02:42.244Z,1005.04
2018-12-07T03:03:42.241Z,1004.86
2018-12-07T03:04:42.233Z,1005.00
2018-12-07T03:05:42.254Z,1005.01
2018-12-07T03:06:42.208Z,1004.96
2018-12-07T03:07:42.203Z,1004.97
2018-12-07T03:08:42.182Z,1004.83
2018-12-07T03:09:42.166Z,1004.94
2018-12-07T03:10:42.182Z,1004.84
2018-12-07T03:11:42.152Z,1004.83
2018-12-07T03:12:42.150Z,1004.81
2018-12-07T03:13:42.138Z,1004.79
2018-12-07T03:14:42.122Z,1004.92
2018-12-07T03:15:42.145Z,1004.82
2018-12-07T03:16:42.106Z,1004.78
2018-12-07T03:17:42.087Z,1004.85
2018-12-07T03:18:42.086Z,1004.74
2018-12-07T03:19:42.060Z,1004.71
2018-12-07T03:20:42.060Z,1004.67
2018-12-07T03:21:42.066Z,1004.73
2018-12-07T03:22:42.034Z,1004.68
2018-12-07T03:23:42.023Z,1004.66
2018-12-07T03:24:42.010Z,1004.65
2018-12-07T03:25:41.990Z,1004.67
2018-12-07T03:26:42.004Z,1004.70
2018-12-07T03:27:41.993Z,1004.60
2018-12-07T03:28:41.957Z,1004.76
2018-12-07T03:29:41.957Z,1004.72
2018-12-07T03:30:41.946Z,1004.70
2018-12-07T03:31:41.947Z,1004.76
2018-12-07T03:32:41.916Z,1004.61
2018-12-07T03:33:41.945Z,1004.69
2018-12-07T03:34:41.892Z,1004.70
2018-12-07T03:35:41.890Z,1004.69
2018-12-07T03:36:41.902Z,1004.60
2018-12-07T03:37:41.874Z,1004.56
2018-12-07T03:38:41.853Z,1004.52
2018-12-07T03:39:41.854Z,1004.50
2018-12-07T03:40:41.829Z,1004.64
2018-12-07T03:41:41.847Z,1004.55
2018-12-07T03:42:41.811Z,1004.58
2018-12-07T03:43:41.804Z,1004.55
2018-12-07T03:44:41.797Z,1004.64
2018-12-07T03:45:41.769Z,1004.58
2018-12-07T03:46:41.767Z,1004.57
2018-12-07T03:47:41.776Z,1004.49
2018-12-07T03:48:41.747Z,1004.52
2018-12-07T03:49:41.729Z,1004.55
2018-12-07T03:50:41.720Z,1004.55
2018-12-07T03:51:41.737Z,1004.58
2018-12-07T03:52:41.703Z,1004.45
2018-12-07T03:53:41.677Z,1004.42
2018-12-07T03:54:41.683Z,1004.48
2018-12-07T03:55:41.662Z,1004.60
2018-12-07T03:56:41.675Z,1004.51
2018-12-07T03:57:41.681Z,1004.44
2018-12-07T03:58:41.637Z,1004.38
2018-12-07T03:59:41.617Z,1004.42
2018-12-07T04:00:41.608Z,1004.38
2018-12-07T04:01:41.618Z,1004.40
2018-12-07T04:02:41.599Z,1004.51
2018-12-07T04:03:41.918Z,1004.43
2018-12-07T04:04:41.579Z,1004.50
2018-12-07T04:05:41.569Z,1004.34
2018-12-07T04:06:41.576Z,1004.33
2018-12-07T04:07:41.547Z,1004.34
2018-12-07T04:08:41.515Z,1004.33
2018-12-07T04:09:41.502Z,1004.38
2018-12-07T04:10:41.493Z,1004.44
2018-12-07T04:11:41.487Z,1004.45
2018-12-07T04:12:41.507Z,1004.33
2018-12-07T04:13:41.467Z,1004.30
2018-12-07T04:14:41.485Z,1004.28
2018-12-07T04:15:41.444Z,1004.43
2018-12-07T04:16:41.435Z,1004.29
2018-12-07T04:17:41.454Z,1004.34
2018-12-07T04:18:41.407Z,1004.34
2018-12-07T04:19:41.400Z,1004.32
2018-12-07T04:20:41.442Z,1004.28
2018-12-07T04:21:41.391Z,1004.31
2018-12-07T04:22:41.383Z,1004.29
2018-12-07T04:23:41.387Z,1004.15
2018-12-07T04:24:41.368Z,1004.14
2018-12-07T04:25:41.332Z,1004.14
2018-12-07T04:26:41.330Z,1004.18
2018-12-07T04:27:41.321Z,1004.23
2018-12-07T04:28:41.324Z,1004.24
2018-12-07T04:29:41.285Z,1004.25
2018-12-07T04:30:41.281Z,1004.27
2018-12-07T04:31:41.266Z,1004.28
2018-12-07T04:32:41.275Z,1004.19
2018-12-07T04:33:41.247Z,1004.38
2018-12-07T04:34:41.226Z,1004.36
2018-12-07T04:35:41.230Z,1004.24
2018-12-07T04:36:41.216Z,1004.37
2018-12-07T04:37:41.224Z,1004.44
2018-12-07T04:38:41.213Z,1004.36
2018-12-07T04:39:41.204Z,1004.30
2018-12-07T04:40:41.177Z,1004.34
2018-12-07T04:41:41.163Z,1004.32
2018-12-07T04:42:41.229Z,1004.41
2018-12-07T04:43:41.146Z,1004.37
2018-12-07T04:44:41.124Z,1004.38
2018-12-07T04:45:41.115Z,1004.22
2018-12-07T04:46:41.127Z,1004.20
2018-12-07T04:47:41.115Z,1004.20
2018-12-07T04:48:41.078Z,1004.19
2018-12-07T04:49:41.061Z,1004.16
2018-12-07T04:50:41.061Z,1004.12
2018-12-07T04:51:41.057Z,1004.14
2018-12-07T04:52:41.073Z,1004.14
2018-12-07T04:53:41.030Z,1004.12
2018-12-07T04:54:41.019Z,1004.23
2018-12-07T04:55:41.022Z,1004.24
2018-12-07T04:56:41.042Z,1004.23
2018-12-07T04:57:41.003Z,1004.14
2018-12-07T04:58:41.031Z,1004.18
2018-12-07T04:59:40.955Z,1004.09
2018-12-07T05:00:40.946Z,1004.11
2018-12-07T05:01:40.937Z,1004.06
2018-12-07T05:02:40.959Z,1004.15
2018-12-07T05:03:40.980Z,1004.02
2018-12-07T05:04:40.895Z,1004.07
2018-12-07T05:05:40.889Z,1004.06
2018-12-07T05:06:40.888Z,1003.95
2018-12-07T05:07:40.871Z,1003.94
2018-12-07T05:08:40.872Z,1003.91
2018-12-07T05:09:40.852Z,1004.04
2018-12-07T05:10:40.856Z,1003.90
2018-12-07T05:11:40.831Z,1004.00
2018-12-07T05:12:40.832Z,1003.99
2018-12-07T05:13:40.830Z,1003.94
2018-12-07T05:14:40.791Z,1003.95
2018-12-07T05:15:40.801Z,1004.00
2018-12-07T05:16:40.866Z,1003.95
2018-12-07T05:17:40.757Z,1004.06
2018-12-07T05:18:40.773Z,1004.08
2018-12-07T05:19:40.743Z,1003.92
2018-12-07T05:20:40.728Z,1003.98
2018-12-07T05:21:40.716Z,1003.94
2018-12-07T05:22:40.717Z,1003.96
2018-12-07T05:23:40.706Z,1003.98
2018-12-07T05:24:40.682Z,1003.83
2018-12-07T05:25:40.676Z,1003.91
2018-12-07T05:26:40.694Z,1003.97
2018-12-07T05:27:40.646Z,1003.95
2018-12-07T05:28:40.668Z,1003.93
2018-12-07T05:29:40.626Z,1004.00
2018-12-07T05:30:40.636Z,1003.94
2018-12-07T05:31:40.609Z,1004.00
2018-12-07T05:32:40.602Z,1003.89
2018-12-07T05:33:40.616Z,1003.87
2018-12-07T05:34:40.577Z,1003.98
2018-12-07T05:35:40.569Z,1003.88
2018-12-07T05:36:40.574Z,1003.85
2018-12-07T05:37:40.538Z,1003.94
2018-12-07T05:38:40.554Z,1003.97
2018-12-07T05:39:40.514Z,1003.98
2018-12-07T05:40:40.508Z,1004.01
2018-12-07T05:41:40.503Z,1003.85
2018-12-07T05:42:40.480Z,1003.90
2018-12-07T05:43:40.509Z,1003.92
2018-12-07T05:44:40.453Z,1004.00
2018-12-07T05:45:40.451Z,1003.97
2018-12-07T05:46:40.471Z,1003.99
2018-12-07T05:47:40.422Z,1003.90
2018-12-07T05:48:40.418Z,1003.87
2018-12-07T05:49:40.424Z,1003.83
2018-12-07T05:50:40.402Z,1003.94
2018-12-07T05:51:40.380Z,1003.99
2018-12-07T05:52:40.362Z,1004.00
2018-12-07T05:53:40.352Z,1003.97
2018-12-07T05:54:40.356Z,1003.86
2018-12-07T05:55:40.339Z,1003.81
2018-12-07T05:56:40.367Z,1003.98
2018-12-07T05:57:40.336Z,1003.88
2018-12-07T05:58:40.311Z,1003.95
2018-12-07T05:59:40.314Z,1003.95
2018-12-07T06:00:40.286Z,1003.97
2018-12-07T06:01:40.458Z,1003.93
2018-12-07T06:02:40.264Z,1003.85
2018-12-07T06:03:40.272Z,1003.98
2018-12-07T06:04:40.255Z,1003.95
2018-12-07T06:05:40.229Z,1003.94
2018-12-07T06:06:40.215Z,1003.94
2018-12-07T06:07:40.215Z,1003.84
2018-12-07T06:08:40.205Z,1003.85
2018-12-07T06:09:40.308Z,1003.76
2018-12-07T06:10:40.174Z,1003.78
2018-12-07T06:11:40.218Z,1003.76
2018-12-07T06:12:40.148Z,1003.82
2018-12-07T06:13:40.147Z,1003.80
2018-12-07T06:14:40.129Z,1003.86
2018-12-07T06:15:40.116Z,1003.86
2018-12-07T06:16:40.105Z,1003.82
2018-12-07T06:17:40.095Z,1003.78
2018-12-07T06:18:40.084Z,1003.84
2018-12-07T06:19:40.081Z,1003.78
2018-12-07T06:20:40.056Z,1003.81
2018-12-07T06:21:40.050Z,1003.75
2018-12-07T06:22:40.047Z,1003.74
2018-12-07T06:23:40.033Z,1003.82
2018-12-07T06:24:40.052Z,1003.81
2018-12-07T06:25:40.039Z,1003.76
2018-12-07T06:26:39.994Z,1003.87
2018-12-07T06:27:39.984Z,1003.74
2018-12-07T06:28:39.976Z,1003.77
2018-12-07T06:29:39.970Z,1003.85
2018-12-07T06:30:39.964Z,1003.68
2018-12-07T06:31:39.933Z,1003.85
2018-12-07T06:32:39.930Z,1003.69
2018-12-07T06:33:40.635Z,1003.65
2018-12-07T06:34:39.930Z,1003.70
2018-12-07T06:35:39.891Z,1003.71
2018-12-07T06:36:39.888Z,1003.78
2018-12-07T06:37:39.872Z,1003.79
2018-12-07T06:38:39.862Z,1003.68
2018-12-07T06:39:39.843Z,1003.71
2018-12-07T06:40:39.899Z,1003.65
2018-12-07T06:41:39.832Z,1003.71
2018-12-07T06:42:39.803Z,1003.77
2018-12-07T06:43:39.809Z,1003.82
2018-12-07T06:44:39.795Z,1003.77
2018-12-07T06:45:39.801Z,1003.76
2018-12-07T06:46:39.777Z,1003.73
2018-12-07T06:47:39.763Z,1003.75
2018-12-07T06:48:39.755Z,1003.72
2018-12-07T06:49:39.732Z,1003.59
2018-12-07T06:50:39.751Z,1003.58
2018-12-07T06:51:39.707Z,1003.56
2018-12-07T06:52:39.699Z,1003.64
2018-12-07T06:53:39.737Z,1003.64
2018-12-07T06:54:39.715Z,1003.60
2018-12-07T06:55:39.679Z,1003.60
2018-12-07T06:56:39.661Z,1003.69
2018-12-07T06:57:39.659Z,1003.57
2018-12-07T06:58:39.636Z,1003.65
2018-12-07T06:59:39.625Z,1003.60
2018-12-07T07:00:39.659Z,1003.63
2018-12-07T07:01:39.609Z,1003.59
2018-12-07T07:02:39.591Z,1003.57
2018-12-07T07:03:39.590Z,1003.58
2018-12-07T07:04:39.572Z,1003.49
2018-12-07T07:05:39.581Z,1003.45
2018-12-07T07:06:39.552Z,1003.46
2018-12-07T07:07:39.567Z,1003.49
2018-12-07T07:08:39.533Z,1003.47
2018-12-07T07:09:39.516Z,1003.44
2018-12-07T07:10:39.521Z,1003.57
2018-12-07T07:11:39.540Z,1003.51
2018-12-07T07:12:39.493Z,1003.46
2018-12-07T07:13:39.468Z,1003.47
2018-12-07T07:14:39.467Z,1003.49
2018-12-07T07:15:39.460Z,1003.44
2018-12-07T07:16:39.431Z,1003.37
2018-12-07T07:17:39.430Z,1003.48
2018-12-07T07:18:39.406Z,1003.46
2018-12-07T07:19:39.431Z,1003.45
2018-12-07T07:20:39.476Z,1003.47
2018-12-07T07:21:39.403Z,1003.50
2018-12-07T07:22:39.376Z,1003.53
2018-12-07T07:23:39.380Z,1003.68
2018-12-07T07:24:39.342Z,1003.62
2018-12-07T07:25:39.368Z,1003.66
2018-12-07T07:26:39.324Z,1003.62
2018-12-07T07:27:39.318Z,1003.70
2018-12-07T07:28:39.306Z,1003.60
2018-12-07T07:29:39.278Z,1003.54
2018-12-07T07:30:39.282Z,1003.61
2018-12-07T07:31:43.450Z,1003.67
2018-12-07T07:32:39.253Z,1003.58
2018-12-07T07:33:39.250Z,1003.64
2018-12-07T07:34:39.238Z,1003.58
2018-12-07T07:35:39.220Z,1003.55
2018-12-07T07:36:39.236Z,1003.59
2018-12-07T07:37:39.198Z,1003.55
2018-12-07T07:38:39.186Z,1003.45
2018-12-07T07:39:39.187Z,1003.49
2018-12-07T07:40:39.157Z,1003.46
2018-12-07T07:41:39.182Z,1003.46
2018-12-07T07:42:39.145Z,1003.40
2018-12-07T07:43:39.136Z,1003.40
2018-12-07T07:44:39.129Z,1003.45
2018-12-07T07:45:39.118Z,1003.44
2018-12-07T07:46:39.117Z,1003.44
2018-12-07T07:47:39.089Z,1003.49
2018-12-07T07:48:39.069Z,1003.55
2018-12-07T07:49:39.080Z,1003.49
2018-12-07T07:50:39.051Z,1003.43
2018-12-07T07:51:39.053Z,1003.38
2018-12-07T07:52:39.033Z,1003.45
2018-12-07T07:53:39.023Z,1003.39
2018-12-07T07:54:39.009Z,1003.26
2018-12-07T07:55:38.997Z,1003.34
2018-12-07T07:56:38.995Z,1003.31
2018-12-07T07:57:38.970Z,1003.28
2018-12-07T07:58:38.974Z,1003.27
2018-12-07T07:59:38.963Z,1003.29
2018-12-07T08:00:38.946Z,1003.32
2018-12-07T08:01:38.951Z,1003.22
2018-12-07T08:02:38.918Z,1003.18
2018-12-07T08:03:38.909Z,1003.13
2018-12-07T08:04:38.905Z,1003.22
2018-12-07T08:05:38.895Z,1003.22
2018-12-07T08:06:38.884Z,1003.15
2018-12-07T08:07:38.860Z,1003.12
2018-12-07T08:08:38.875Z,1003.13
2018-12-07T08:09:38.841Z,1003.00
2018-12-07T08:10:38.844Z,1003.00
2018-12-07T08:11:38.836Z,1003.03
2018-12-07T08:12:38.805Z,1003.10
2018-12-07T08:13:38.812Z,1003.10
2018-12-07T08:14:38.787Z,1003.10
2018-12-07T08:15:38.772Z,1003.06
2018-12-07T08:16:38.789Z,1002.90
2018-12-07T08:17:38.765Z,1002.97
2018-12-07T08:18:38.739Z,1002.96
2018-12-07T08:19:38.727Z,1002.89
2018-12-07T08:20:38.739Z,1002.95
2018-12-07T08:21:38.731Z,1002.84
2018-12-07T08:22:38.695Z,1002.91
2018-12-07T08:23:38.697Z,1002.95
2018-12-07T08:24:38.692Z,1002.88
2018-12-07T08:25:38.660Z,1002.94
2018-12-07T08:26:38.660Z,1002.96
2018-12-07T08:27:38.644Z,1002.90
2018-12-07T08:28:38.636Z,1003.00
2018-12-07T08:29:38.682Z,1002.99
2018-12-07T08:30:38.619Z,1002.99
2018-12-07T08:31:38.617Z,1003.01
2018-12-07T08:32:38.644Z,1003.09
2018-12-07T08:33:38.576Z,1002.88
2018-12-07T08:34:38.561Z,1003.04
2018-12-07T08:35:38.553Z,1003.06
2018-12-07T08:36:38.612Z,1002.93
2018-12-07T08:37:38.528Z,1002.88
2018-12-07T08:38:38.532Z,1003.01
2018-12-07T08:39:38.504Z,1002.85
2018-12-07T08:40:38.541Z,1002.93
2018-12-07T08:41:38.508Z,1002.89
2018-12-07T08:42:38.480Z,1003.00
2018-12-07T08:43:38.466Z,1002.96
2018-12-07T08:44:38.445Z,1003.02
2018-12-07T08:45:38.444Z,1003.07
2018-12-07T08:46:38.443Z,1003.08
2018-12-07T08:47:38.416Z,1002.89
2018-12-07T08:48:38.404Z,1002.78
2018-12-07T08:49:38.403Z,1002.86
2018-12-07T08:50:38.401Z,1002.82
2018-12-07T08:51:38.400Z,1002.81
2018-12-07T08:52:38.358Z,1002.80
2018-12-07T08:53:38.358Z,1002.80
2018-12-07T08:54:38.349Z,1002.79
2018-12-07T08:55:38.326Z,1002.76
2018-12-07T08:56:38.340Z,1002.71
2018-12-07T08:57:38.313Z,1002.74
2018-12-07T08:58:38.297Z,1002.74
2018-12-07T08:59:38.298Z,1002.75
2018-12-07T09:00:38.281Z,1002.75
2018-12-07T09:01:38.304Z,1002.75
2018-12-07T09:02:38.248Z,1002.73
2018-12-07T09:03:38.250Z,1002.72
2018-12-07T09:04:38.223Z,1002.71
2018-12-07T09:05:38.265Z,1002.84
2018-12-07T09:06:38.220Z,1002.77
2018-12-07T09:07:38.204Z,1002.81
2018-12-07T09:08:38.185Z,1002.77
2018-12-07T09:09:38.175Z,1002.71
2018-12-07T09:10:38.155Z,1002.83
2018-12-07T09:11:38.194Z,1002.82
2018-12-07T09:12:38.140Z,1002.70
2018-12-07T09:13:38.122Z,1002.64
2018-12-07T09:14:38.123Z,1002.65
2018-12-07T09:15:38.126Z,1002.70
2018-12-07T09:16:38.103Z,1002.63
2018-12-07T09:17:38.105Z,1002.72
2018-12-07T09:18:38.087Z,1002.77
2018-12-07T09:19:38.100Z,1002.74
2018-12-07T09:20:38.060Z,1002.64
2018-12-07T09:21:38.047Z,1002.56
2018-12-07T09:22:38.041Z,1002.57
2018-12-07T09:23:38.023Z,1002.54
2018-12-07T09:24:38.011Z,1002.63
2018-12-07T09:25:38.033Z,1002.66
2018-12-07T09:26:37.983Z,1002.48
2018-12-07T09:27:37.998Z,1002.45
2018-12-07T09:28:37.959Z,1002.62
2018-12-07T09:29:37.949Z,1002.53
2018-12-07T09:30:37.946Z,1002.54
2018-12-07T09:31:37.928Z,1002.39
2018-12-07T09:32:37.946Z,1002.33
2018-12-07T09:33:37.915Z,1002.34
2018-12-07T09:34:37.901Z,1002.35
2018-12-07T09:35:37.888Z,1002.32
2018-12-07T09:36:37.884Z,1002.33
2018-12-07T09:37:37.882Z,1002.28
2018-12-07T09:38:37.866Z,1002.31
2018-12-07T09:39:37.836Z,1002.42
2018-12-07T09:40:37.834Z,1002.26
2018-12-07T09:41:37.822Z,1002.28
2018-12-07T09:42:38.256Z,1002.24
2018-12-07T09:43:37.790Z,1002.22
2018-12-07T09:44:37.793Z,1002.24
2018-12-07T09:45:37.777Z,1002.20
2018-12-07T09:46:37.768Z,1002.32
2018-12-07T09:47:37.784Z,1002.30
2018-12-07T09:48:37.733Z,1002.22
2018-12-07T09:49:37.749Z,1002.21
2018-12-07T09:50:37.720Z,1002.24
2018-12-07T09:51:37.710Z,1002.12
2018-12-07T09:52:37.711Z,1002.21
2018-12-07T09:53:37.690Z,1002.16
2018-12-07T09:54:37.696Z,1002.15
2018-12-07T09:55:37.664Z,1002.02
2018-12-07T09:56:37.665Z,1002.03
2018-12-07T09:57:37.656Z,1002.11
2018-12-07T09:58:37.627Z,1002.07
2018-12-07T09:59:37.629Z,1002.01
2018-12-07T10:00:37.609Z,1001.99
2018-12-07T10:01:37.592Z,1002.04
2018-12-07T10:02:37.643Z,1001.93
2018-12-07T10:03:37.568Z,1001.95
2018-12-07T10:04:37.564Z,1001.93
2018-12-07T10:05:37.557Z,1001.91
2018-12-07T10:06:37.548Z,1001.95
2018-12-07T10:07:37.537Z,1001.90
2018-12-07T10:08:37.538Z,1001.83
2018-12-07T10:09:37.524Z,1001.77
2018-12-07T10:10:37.499Z,1001.86
2018-12-07T10:11:37.484Z,1001.83
2018-12-07T10:12:37.471Z,1001.72
2018-12-07T10:13:37.494Z,1001.87
2018-12-07T10:14:37.453Z,1001.87
2018-12-07T10:15:37.459Z,1001.82
2018-12-07T10:16:37.429Z,1001.68
2018-12-07T10:17:37.422Z,1001.77
2018-12-07T10:18:37.428Z,1001.73
2018-12-07T10:19:37.401Z,1001.76
2018-12-07T10:20:37.388Z,1001.74
2018-12-07T10:21:37.373Z,1001.72
2018-12-07T10:22:37.963Z,1001.53
2018-12-07T10:23:37.385Z,1001.65
2018-12-07T10:24:37.346Z,1001.52
2018-12-07T10:25:37.332Z,1001.48
2018-12-07T10:26:37.319Z,1001.55
2018-12-07T10:27:37.311Z,1001.43
2018-12-07T10:28:37.356Z,1001.52
2018-12-07T10:29:37.291Z,1001.37
2018-12-07T10:30:37.277Z,1001.38
2018-12-07T10:31:37.271Z,1001.43
2018-12-07T10:32:37.250Z,1001.38
2018-12-07T10:33:37.256Z,1001.29
2018-12-07T10:34:37.262Z,1001.29
2018-12-07T10:35:37.217Z,1001.41
2018-12-07T10:36:37.208Z,1001.32
2018-12-07T10:37:37.199Z,1001.30
2018-12-07T10:38:37.199Z,1001.25
2018-12-07T10:39:37.175Z,1001.25
2018-12-07T10:40:37.165Z,1001.20
2018-12-07T10:41:37.151Z,1001.22
2018-12-07T10:42:37.135Z,1001.22
2018-12-07T10:43:37.157Z,1001.20
2018-12-07T10:44:37.228Z,1001.20
2018-12-07T10:45:37.102Z,1001.17
2018-12-07T10:46:37.104Z,1001.10
2018-12-07T10:47:37.096Z,1001.15
2018-12-07T10:48:37.085Z,1001.07
2018-12-07T10:49:37.067Z,1001.24
2018-12-07T10:50:37.080Z,1001.23
2018-12-07T10:51:37.042Z,1001.24
2018-12-07T10:52:37.033Z,1001.08
2018-12-07T10:53:37.034Z,1001.04
2018-12-07T10:54:37.000Z,1000.96
2018-12-07T10:55:37.020Z,1000.98
2018-12-07T10:56:36.985Z,1000.92
2018-12-07T10:57:36.978Z,1001.02
2018-12-07T10:58:36.999Z,1000.89
2018-12-07T10:59:36.973Z,1000.90
2018-12-07T11:00:36.945Z,1000.86
2018-12-07T11:01:36.931Z,1000.91
2018-12-07T11:02:38.169Z,1000.80
2018-12-07T11:03:36.915Z,1000.81
2018-12-07T11:04:36.962Z,1000.77
2018-12-07T11:05:36.888Z,1000.74
2018-12-07T11:06:36.880Z,1000.85
2018-12-07T11:07:36.890Z,1000.86
2018-12-07T11:08:36.853Z,1000.68
2018-12-07T11:09:36.861Z,1000.59
2018-12-07T11:10:36.828Z,1000.67
2018-12-07T11:11:36.807Z,1000.63
2018-12-07T11:12:36.805Z,1000.69
2018-12-07T11:13:36.802Z,1000.54
2018-12-07T11:14:36.798Z,1000.67
2018-12-07T11:15:36.778Z,1000.64
2018-12-07T11:16:36.757Z,1000.57
2018-12-07T11:17:36.750Z,1000.65
2018-12-07T11:18:36.751Z,1000.49
2018-12-07T11:19:36.756Z,1000.45
2018-12-07T11:20:36.713Z,1000.54
2018-12-07T11:21:36.714Z,1000.44
2018-12-07T11:22:36.698Z,1000.44
2018-12-07T11:23:36.688Z,1000.45
2018-12-07T11:24:36.708Z,1000.54
2018-12-07T11:25:36.666Z,1000.37
2018-12-07T11:26:36.653Z,1000.48
2018-12-07T11:27:36.650Z,1000.40
2018-12-07T11:28:36.630Z,1000.38
2018-12-07T11:29:36.638Z,1000.42
2018-12-07T11:30:36.652Z,1000.42
2018-12-07T11:31:36.610Z,1000.29
2018-12-07T11:32:36.592Z,1000.23
2018-12-07T11:33:36.570Z,1000.37
2018-12-07T11:34:36.576Z,1000.17
2018-12-07T11:35:36.551Z,1000.23
2018-12-07T11:36:36.556Z,1000.31
2018-12-07T11:37:36.528Z,1000.23
2018-12-07T11:38:36.523Z,1000.12
2018-12-07T11:39:36.546Z,1000.15
2018-12-07T11:40:36.503Z,1000.05
2018-12-07T11:41:36.488Z,1000.05
2018-12-07T11:42:36.478Z,1000.19
2018-12-07T11:43:36.478Z,1000.20
2018-12-07T11:44:36.693Z,1000.22
2018-12-07T11:45:36.442Z,1000.10
2018-12-07T11:46:36.419Z,1000.02
2018-12-07T11:47:36.422Z,1000.05
2018-12-07T11:48:36.406Z,1000.08
2018-12-07T11:49:36.435Z,999.99
2018-12-07T11:50:36.388Z,999.96
2018-12-07T11:51:36.379Z,999.97
2018-12-07T11:52:36.391Z,1000.12
2018-12-07T11:53:36.357Z,1000.11
2018-12-07T11:54:36.369Z,1000.07
2018-12-07T11:55:36.368Z,1000.07
2018-12-07T11:56:36.330Z,999.87
2018-12-07T11:57:36.316Z,999.94
2018-12-07T11:58:36.303Z,999.94
2018-12-07T11:59:36.295Z,999.99
2018-12-07T12:00:36.314Z,999.97
2018-12-07T12:01:36.272Z,999.81
2018-12-07T12:02:36.258Z,999.82
2018-12-07T12:03:36.235Z,999.76
2018-12-07T12:04:36.232Z,999.84
2018-12-07T12:05:36.231Z,999.80
2018-12-07T12:06:36.210Z,999.88